createdAt,value
2018-06-11T00:01:05.783Z,21.99
2018-06-11T00:03:34.219Z,22.03
2018-06-11T00:06:02.619Z,22.16
2018-06-11T00:08:31.039Z,22.31
2018-06-11T00:10:59.508Z,22.13
2018-06-11T00:13:27.931Z,22.16
2018-06-11T00:15:56.499Z,22.15
2018-06-11T00:18:24.904Z,21.79
2018-06-11T00:20:53.304Z,21.81
2018-06-11T00:23:21.735Z,21.93
2018-06-11T00:25:50.147Z,21.74
2018-06-11T00:28:18.752Z,21.67
2018-06-11T00:30:47.227Z,21.71
2018-06-11T00:33:15.624Z,21.51
2018-06-11T00:35:44.047Z,21.48
2018-06-11T00:38:12.455Z,21.36
2018-06-11T00:40:41.048Z,21.04
2018-06-11T00:43:09.526Z,21.13
2018-06-11T00:45:37.959Z,21.11
2018-06-11T00:48:06.507Z,21.30
2018-06-11T00:50:34.955Z,21.24
2018-06-11T00:53:03.408Z,21.05
2018-06-11T00:56:13.923Z,20.99
2018-06-11T00:58:42.360Z,20.97
2018-06-11T01:01:10.826Z,20.89
2018-06-11T01:03:39.242Z,20.91
2018-06-11T01:06:07.664Z,20.93
2018-06-11T01:08:36.089Z,20.91
2018-06-11T01:11:04.577Z,21.23
2018-06-11T01:13:33.007Z,21.17
2018-06-11T01:16:01.410Z,20.93
2018-06-11T01:18:29.864Z,20.48
2018-06-11T01:20:58.276Z,20.75
2018-06-11T01:23:26.706Z,20.98
2018-06-11T01:25:55.127Z,20.94
2018-06-11T01:28:23.536Z,21.03
2018-06-11T01:30:51.983Z,20.64
2018-06-11T01:33:20.382Z,20.76
2018-06-11T01:35:48.802Z,20.82
2018-06-11T01:38:17.225Z,20.62
2018-06-11T01:40:45.645Z,20.53
2018-06-11T01:43:14.060Z,20.68
2018-06-11T01:45:42.461Z,20.56
2018-06-11T01:48:11.053Z,20.49
2018-06-11T01:50:39.499Z,20.52
2018-06-11T01:53:07.935Z,20.63
2018-06-11T01:55:36.376Z,21.07
2018-06-11T01:58:04.814Z,20.94
2018-06-11T02:00:33.640Z,21.13
2018-06-11T02:03:02.059Z,20.82
2018-06-11T02:05:30.505Z,20.39
2018-06-11T02:07:58.930Z,20.36
2018-06-11T02:10:27.371Z,20.22
2018-06-11T02:12:55.807Z,20.34
2018-06-11T02:15:24.279Z,20.32
2018-06-11T02:17:52.700Z,20.26
2018-06-11T02:20:21.149Z,20.19
2018-06-11T02:22:49.568Z,19.98
2018-06-11T02:25:18.026Z,19.74
2018-06-11T02:27:46.461Z,19.92
2018-06-11T02:30:14.891Z,20.57
2018-06-11T02:32:43.347Z,20.03
2018-06-11T02:35:11.772Z,20.09
2018-06-11T02:37:40.310Z,20.06
2018-06-11T02:40:08.764Z,20.00
2018-06-11T02:42:37.187Z,19.98
2018-06-11T02:45:05.905Z,19.94
2018-06-11T02:47:34.331Z,19.86
2018-06-11T02:50:02.895Z,19.28
2018-06-11T02:52:31.299Z,19.58
2018-06-11T02:54:59.721Z,19.31
2018-06-11T02:57:28.159Z,19.33
2018-06-11T02:59:56.583Z,19.48
2018-06-11T03:02:25.271Z,19.62
2018-06-11T03:04:53.674Z,19.73
2018-06-11T03:07:22.099Z,19.46
2018-06-11T03:09:50.568Z,19.28
2018-06-11T03:12:19.055Z,19.34
2018-06-11T03:14:47.643Z,19.42
2018-06-11T03:17:16.071Z,19.09
2018-06-11T03:19:44.463Z,19.22
2018-06-11T03:22:12.932Z,18.99
2018-06-11T03:24:41.340Z,18.84
2018-06-11T03:27:09.886Z,18.85
2018-06-11T03:29:38.322Z,18.94
2018-06-11T03:32:06.736Z,19.24
2018-06-11T03:34:35.169Z,19.28
2018-06-11T03:37:03.567Z,19.47
2018-06-11T03:39:32.161Z,19.51
2018-06-11T03:42:00.620Z,19.50
2018-06-11T03:44:29.046Z,19.55
2018-06-11T03:46:57.491Z,19.62
2018-06-11T03:49:25.912Z,19.55
2018-06-11T03:51:54.608Z,19.61
2018-06-11T03:54:23.055Z,19.71
2018-06-11T03:56:51.503Z,19.69
2018-06-11T03:59:19.948Z,19.70
2018-06-11T04:01:48.380Z,19.89
2018-06-11T04:04:16.911Z,19.92
2018-06-11T04:06:45.367Z,20.00
2018-06-11T04:09:13.779Z,20.19
2018-06-11T04:11:42.207Z,20.10
2018-06-11T04:14:10.637Z,20.28
2018-06-11T04:16:39.243Z,20.01
2018-06-11T04:19:07.647Z,19.98
2018-06-11T04:21:36.059Z,20.16
2018-06-11T04:24:04.540Z,20.27
2018-06-11T04:26:32.979Z,20.35
2018-06-11T04:29:01.428Z,20.82
2018-06-11T04:31:29.847Z,21.14
2018-06-11T04:33:58.302Z,21.58
2018-06-11T04:36:26.731Z,21.74
2018-06-11T04:38:55.264Z,22.03
2018-06-11T04:41:23.722Z,22.08
2018-06-11T04:43:52.151Z,22.26
2018-06-11T04:46:20.599Z,22.43
2018-06-11T04:48:49.027Z,22.89
2018-06-11T04:51:17.491Z,23.03
2018-06-11T04:53:45.919Z,23.00
2018-06-11T04:56:14.315Z,23.13
2018-06-11T04:58:42.783Z,23.22
2018-06-11T05:01:11.203Z,23.84
2018-06-11T05:03:39.656Z,23.74
2018-06-11T05:06:08.112Z,23.52
2018-06-11T05:08:36.527Z,23.69
2018-06-11T05:11:04.967Z,23.64
2018-06-11T05:13:33.367Z,23.47
2018-06-11T05:16:01.956Z,23.60
2018-06-11T05:18:30.376Z,24.06
2018-06-11T05:20:58.802Z,24.03
2018-06-11T05:23:27.329Z,24.16
2018-06-11T05:25:55.735Z,24.12
2018-06-11T05:28:24.330Z,24.21
2018-06-11T05:30:52.723Z,24.17
2018-06-11T05:33:21.127Z,24.40
2018-06-11T05:35:49.551Z,25.00
2018-06-11T05:38:17.977Z,24.81
2018-06-11T05:40:46.427Z,24.73
2018-06-11T05:43:14.864Z,24.81
2018-06-11T05:45:43.282Z,24.84
2018-06-11T05:48:11.737Z,25.05
2018-06-11T05:50:40.176Z,24.78
2018-06-11T05:53:08.866Z,25.30
2018-06-11T05:55:37.262Z,25.50
2018-06-11T05:58:05.722Z,25.60
2018-06-11T06:00:34.151Z,25.34
2018-06-11T06:03:02.584Z,25.26
2018-06-11T06:05:31.047Z,25.26
2018-06-11T06:07:59.495Z,25.19
2018-06-11T06:10:27.971Z,25.62
2018-06-11T06:12:56.427Z,25.85
2018-06-11T06:15:24.879Z,25.55
2018-06-11T06:17:53.667Z,25.83
2018-06-11T06:20:22.083Z,25.47
2018-06-11T06:22:50.491Z,25.74
2018-06-11T06:25:18.959Z,25.90
2018-06-11T06:27:47.395Z,25.80
2018-06-11T06:30:15.835Z,25.68
2018-06-11T06:32:44.263Z,25.49
2018-06-11T06:35:12.710Z,25.60
2018-06-11T06:37:41.119Z,25.07
2018-06-11T06:40:09.571Z,24.62
2018-06-11T06:42:37.986Z,24.95
2018-06-11T06:45:06.421Z,24.47
2018-06-11T06:47:34.839Z,24.40
2018-06-11T06:50:03.339Z,24.00
2018-06-11T06:52:31.743Z,24.31
2018-06-11T06:55:00.203Z,24.18
2018-06-11T06:57:28.675Z,23.90
2018-06-11T06:59:57.140Z,24.09
2018-06-11T07:02:25.551Z,24.27
2018-06-11T07:04:54.318Z,24.16
2018-06-11T07:07:22.734Z,24.10
2018-06-11T07:09:51.180Z,24.15
2018-06-11T07:12:19.618Z,24.20
2018-06-11T07:14:48.042Z,24.27
2018-06-11T07:17:16.487Z,24.18
2018-06-11T07:19:44.903Z,24.19
2018-06-11T07:22:13.335Z,23.63
2018-06-11T07:24:41.763Z,23.80
2018-06-11T07:27:10.191Z,24.08
2018-06-11T07:29:38.774Z,24.22
2018-06-11T07:32:07.299Z,23.79
2018-06-11T07:34:35.727Z,24.08
2018-06-11T07:37:04.187Z,24.15
2018-06-11T07:39:32.587Z,24.07
2018-06-11T07:42:01.206Z,24.27
2018-06-11T07:44:29.628Z,24.03
2018-06-11T07:46:58.043Z,24.04
2018-06-11T07:49:26.499Z,23.88
2018-06-11T07:51:54.919Z,23.87
2018-06-11T07:54:23.487Z,24.00
2018-06-11T07:56:51.934Z,24.13
2018-06-11T07:59:20.361Z,23.92
2018-06-11T08:01:48.803Z,23.94
2018-06-11T08:04:17.227Z,24.12
2018-06-11T08:06:45.679Z,24.38
2018-06-11T08:09:14.084Z,24.58
2018-06-11T08:11:42.540Z,24.34
2018-06-11T08:14:11.006Z,23.98
2018-06-11T08:16:39.456Z,24.30
2018-06-11T08:19:08.047Z,24.54
2018-06-11T08:21:36.452Z,24.50
2018-06-11T08:24:04.924Z,24.47
2018-06-11T08:26:33.359Z,24.65
2018-06-11T08:29:01.792Z,24.48
2018-06-11T08:31:30.245Z,24.36
2018-06-11T08:33:58.644Z,24.09
2018-06-11T08:36:27.094Z,24.57
2018-06-11T08:38:55.539Z,24.69
2018-06-11T08:41:27.374Z,24.98
2018-06-11T08:43:55.814Z,24.76
2018-06-11T08:46:24.271Z,24.87
2018-06-11T08:48:52.715Z,25.16
2018-06-11T08:51:21.183Z,25.40
2018-06-11T08:53:49.620Z,25.71
2018-06-11T08:56:18.143Z,26.07
2018-06-11T08:58:46.544Z,26.44
2018-06-11T09:01:14.969Z,26.36
2018-06-11T09:03:43.395Z,26.01
2018-06-11T09:06:11.811Z,26.04
2018-06-11T09:08:40.259Z,26.24
2018-06-11T09:11:08.819Z,26.33
2018-06-11T09:13:37.227Z,26.61
2018-06-11T09:16:05.684Z,26.59
2018-06-11T09:18:34.133Z,26.76
2018-06-11T09:21:02.623Z,26.96
2018-06-11T09:23:31.187Z,26.37
2018-06-11T09:25:59.620Z,26.31
2018-06-11T09:28:28.019Z,26.55
2018-06-11T09:30:56.480Z,25.90
2018-06-11T09:33:24.875Z,25.73
2018-06-11T09:35:53.301Z,25.84
2018-06-11T09:38:21.759Z,25.99
2018-06-11T09:40:50.193Z,25.73
2018-06-11T09:43:18.627Z,25.73
2018-06-11T09:45:47.063Z,25.72
2018-06-11T09:48:15.468Z,25.77
2018-06-11T09:50:44.031Z,25.54
2018-06-11T09:53:12.463Z,25.76
2018-06-11T09:55:40.908Z,25.87
2018-06-11T09:58:09.338Z,26.06
2018-06-11T10:00:37.986Z,25.92
2018-06-11T10:03:06.544Z,25.85
2018-06-11T10:05:34.947Z,26.37
2018-06-11T10:08:03.376Z,26.44
2018-06-11T10:10:31.847Z,26.28
2018-06-11T10:13:00.268Z,26.15
2018-06-11T10:15:28.815Z,26.29
2018-06-11T10:17:57.219Z,25.73
2018-06-11T10:20:25.684Z,26.01
2018-06-11T10:22:54.103Z,25.98
2018-06-11T10:25:22.579Z,26.46
2018-06-11T10:27:51.119Z,26.14
2018-06-11T10:30:19.584Z,25.85
2018-06-11T10:32:48.039Z,26.22
2018-06-11T10:35:16.511Z,26.04
2018-06-11T10:37:44.986Z,26.26
2018-06-11T10:40:13.591Z,25.86
2018-06-11T10:42:41.993Z,25.78
2018-06-11T10:45:10.419Z,26.12
2018-06-11T10:47:38.868Z,25.83
2018-06-11T10:50:07.287Z,26.30
2018-06-11T10:52:36.075Z,26.29
2018-06-11T10:55:04.553Z,26.65
2018-06-11T10:57:33.079Z,26.29
2018-06-11T11:00:01.500Z,26.18
2018-06-11T11:02:29.935Z,25.94
2018-06-11T11:04:58.396Z,26.26
2018-06-11T11:07:26.803Z,26.14
2018-06-11T11:09:55.215Z,26.27
2018-06-11T11:12:23.651Z,26.05
2018-06-11T11:14:52.048Z,26.01
2018-06-11T11:17:20.507Z,26.59
2018-06-11T11:19:48.915Z,26.69
2018-06-11T11:22:17.315Z,26.76
2018-06-11T11:24:45.799Z,26.75
2018-06-11T11:27:14.231Z,26.95
2018-06-11T11:29:42.711Z,26.72
2018-06-11T11:32:11.143Z,26.54
2018-06-11T11:34:39.599Z,26.62
2018-06-11T11:37:08.059Z,26.60
2018-06-11T11:39:36.474Z,26.61
2018-06-11T11:42:04.992Z,26.72
2018-06-11T11:44:33.500Z,26.62
2018-06-11T11:47:01.911Z,26.69
2018-06-11T11:49:30.347Z,26.26
2018-06-11T11:51:58.796Z,26.34
2018-06-11T11:54:27.251Z,26.48
2018-06-11T11:56:55.683Z,26.35
2018-06-11T11:59:24.108Z,25.91
2018-06-11T12:01:52.551Z,26.04
2018-06-11T12:04:20.979Z,26.10
2018-06-11T12:06:49.581Z,25.96
2018-06-11T12:09:17.987Z,25.83
2018-06-11T12:11:46.446Z,26.02
2018-06-11T12:14:14.883Z,26.01
2018-06-11T12:16:43.275Z,25.87
2018-06-11T12:19:11.704Z,25.86
2018-06-11T12:21:40.099Z,25.75
2018-06-11T12:24:08.559Z,26.02
2018-06-11T12:26:37.009Z,25.86
2018-06-11T12:29:05.437Z,25.57
2018-06-11T12:31:33.867Z,25.38
2018-06-11T12:34:02.258Z,25.49
2018-06-11T12:36:30.833Z,25.62
2018-06-11T12:38:59.229Z,25.30
2018-06-11T12:41:27.637Z,25.44
2018-06-11T12:43:56.063Z,25.04
2018-06-11T12:46:24.491Z,24.86
2018-06-11T12:48:52.996Z,24.77
2018-06-11T12:51:21.407Z,24.87
2018-06-11T12:53:49.839Z,24.70
2018-06-11T12:56:18.287Z,25.21
2018-06-11T12:58:46.736Z,25.07
2018-06-11T13:01:15.251Z,25.15
2018-06-11T13:03:43.673Z,25.03
2018-06-11T13:06:12.119Z,24.96
2018-06-11T13:08:40.586Z,24.69
2018-06-11T13:11:09.015Z,24.60
2018-06-11T13:13:37.445Z,24.57
2018-06-11T13:16:05.875Z,24.27
2018-06-11T13:18:34.319Z,24.21
2018-06-11T13:21:02.744Z,24.03
2018-06-11T13:23:31.160Z,23.88
2018-06-11T13:25:59.899Z,24.02
2018-06-11T13:28:28.303Z,24.39
2018-06-11T13:30:56.739Z,24.32
2018-06-11T13:33:25.187Z,24.16
2018-06-11T13:35:53.619Z,23.87
2018-06-11T13:38:22.045Z,23.96
2018-06-11T13:40:50.459Z,23.90
2018-06-11T13:43:18.867Z,23.77
2018-06-11T13:45:47.299Z,23.70
2018-06-11T13:48:15.732Z,23.12
2018-06-11T13:50:44.175Z,23.53
2018-06-11T13:53:12.619Z,23.02
2018-06-11T13:55:41.031Z,23.48
2018-06-11T13:58:09.584Z,23.44
2018-06-11T14:00:38.176Z,23.45
2018-06-11T14:03:06.732Z,23.38
2018-06-11T14:05:35.185Z,23.50
2018-06-11T14:08:03.624Z,23.49
2018-06-11T14:10:32.064Z,23.60
2018-06-11T14:13:00.480Z,23.37
2018-06-11T14:15:28.935Z,23.40
2018-06-11T14:17:57.359Z,23.28
2018-06-11T14:20:25.788Z,23.13
2018-06-11T14:22:54.235Z,22.90
2018-06-11T14:25:22.683Z,23.10
2018-06-11T14:27:51.136Z,23.15
2018-06-11T14:30:19.583Z,23.04
2018-06-11T14:32:48.039Z,22.92
2018-06-11T14:35:16.471Z,22.49
2018-06-11T14:37:44.900Z,22.38
2018-06-11T14:40:13.350Z,22.75
2018-06-11T14:42:41.776Z,22.50
2018-06-11T14:45:10.231Z,22.50
2018-06-11T14:47:38.675Z,22.26
2018-06-11T14:50:07.115Z,22.10
2018-06-11T14:52:35.555Z,21.96
2018-06-11T14:55:04.102Z,21.84
2018-06-11T14:57:32.519Z,21.95
2018-06-11T15:00:00.964Z,22.01
2018-06-11T15:02:29.411Z,21.98
2018-06-11T15:04:57.860Z,22.12
2018-06-11T15:07:26.367Z,21.77
2018-06-11T15:09:54.800Z,21.93
2018-06-11T15:12:23.210Z,22.35
2018-06-11T15:14:51.684Z,22.52
2018-06-11T15:17:20.399Z,22.03
2018-06-11T15:19:48.851Z,22.03
2018-06-11T15:22:17.315Z,21.91
2018-06-11T15:24:45.940Z,21.75
2018-06-11T15:27:14.411Z,22.31
2018-06-11T15:29:42.937Z,21.99
2018-06-11T15:32:11.375Z,22.16
2018-06-11T15:34:39.772Z,22.42
2018-06-11T15:37:08.274Z,22.08
2018-06-11T15:39:36.735Z,22.31
2018-06-11T15:42:05.203Z,22.21
2018-06-11T15:44:33.659Z,22.55
2018-06-11T15:47:02.129Z,22.60
2018-06-11T15:49:30.769Z,22.59
2018-06-11T15:51:59.249Z,22.33
2018-06-11T15:54:27.711Z,21.75
2018-06-11T15:56:56.203Z,21.88
2018-06-11T15:59:24.651Z,21.82
2018-06-11T16:01:53.431Z,22.06
2018-06-11T16:04:21.848Z,22.41
2018-06-11T16:06:50.291Z,22.35
2018-06-11T16:09:18.739Z,22.16
2018-06-11T16:11:47.191Z,21.97
2018-06-11T16:14:15.643Z,22.03
2018-06-11T16:16:44.057Z,21.73
2018-06-11T16:19:12.496Z,21.62
2018-06-11T16:21:40.944Z,21.58
2018-06-11T16:24:09.400Z,21.57
2018-06-11T16:26:37.892Z,21.45
2018-06-11T16:29:06.411Z,21.35
2018-06-11T16:31:34.886Z,21.24
2018-06-11T16:34:03.355Z,21.23
2018-06-11T16:36:31.758Z,21.59
2018-06-11T16:39:00.203Z,22.15
2018-06-11T16:41:28.671Z,22.25
2018-06-11T16:43:57.091Z,21.92
2018-06-11T16:46:25.551Z,22.35
2018-06-11T16:48:53.973Z,22.22
2018-06-11T16:51:22.543Z,21.96
2018-06-11T16:53:50.997Z,21.51
2018-06-11T16:56:19.455Z,21.46
2018-06-11T16:58:47.900Z,21.65
2018-06-11T17:01:16.326Z,21.93
2018-06-11T17:03:44.871Z,21.89
2018-06-11T17:06:13.316Z,21.90
2018-06-11T17:08:41.723Z,21.87
2018-06-11T17:11:10.179Z,21.59
2018-06-11T17:13:38.698Z,21.71
2018-06-11T17:16:07.431Z,21.63
2018-06-11T17:18:35.864Z,21.49
2018-06-11T17:21:04.295Z,21.53
2018-06-11T17:23:32.739Z,21.71
2018-06-11T17:26:01.780Z,21.57
2018-06-11T17:28:30.376Z,21.43
2018-06-11T17:30:58.886Z,21.57
2018-06-11T17:33:27.315Z,22.02
2018-06-11T17:35:55.788Z,21.86
2018-06-11T17:38:24.227Z,21.63
2018-06-11T17:40:52.668Z,21.34
2018-06-11T17:43:21.103Z,21.52
2018-06-11T17:45:49.660Z,21.13
2018-06-11T17:48:18.107Z,21.21
2018-06-11T17:50:46.626Z,21.25
2018-06-11T17:53:15.208Z,21.95
2018-06-11T17:55:43.659Z,21.45
2018-06-11T17:58:12.168Z,21.60
2018-06-11T18:00:40.610Z,21.28
2018-06-11T18:03:09.599Z,21.03
2018-06-11T18:05:38.068Z,21.12
2018-06-11T18:08:06.567Z,21.19
2018-06-11T18:10:35.360Z,21.26
2018-06-11T18:13:03.803Z,21.37
2018-06-11T18:15:32.242Z,21.71
2018-06-11T18:18:00.719Z,21.87
2018-06-11T18:20:29.159Z,22.00
2018-06-11T18:22:57.784Z,21.74
2018-06-11T18:25:26.317Z,21.69
2018-06-11T18:27:54.743Z,21.45
2018-06-11T18:30:23.199Z,21.88
2018-06-11T18:32:51.652Z,21.91
2018-06-11T18:35:20.384Z,21.95
2018-06-11T18:37:48.831Z,21.52
2018-06-11T18:40:18.172Z,21.92
2018-06-11T18:42:47.132Z,21.62
2018-06-11T18:45:15.629Z,22.01
2018-06-11T18:47:44.203Z,21.80
2018-06-11T18:50:12.714Z,21.61
2018-06-11T18:52:41.150Z,21.63
2018-06-11T18:55:09.696Z,21.50
2018-06-11T18:57:38.131Z,21.61
2018-06-11T19:00:06.984Z,21.42
2018-06-11T19:02:35.679Z,21.93
2018-06-11T19:05:04.295Z,21.88
2018-06-11T19:07:32.767Z,21.24
2018-06-11T19:10:01.842Z,21.01
2018-06-11T19:12:30.457Z,21.47
2018-06-11T19:14:58.986Z,21.52
2018-06-11T19:17:27.471Z,21.62
2018-06-11T19:19:55.969Z,21.80
2018-06-11T19:22:24.449Z,21.27
2018-06-11T19:24:53.066Z,21.31
2018-06-11T19:27:21.581Z,21.36
2018-06-11T19:29:50.065Z,21.12
2018-06-11T19:32:18.562Z,21.30
2018-06-11T19:34:46.992Z,21.11
2018-06-11T19:37:15.558Z,21.42
2018-06-11T19:39:43.995Z,21.19
2018-06-11T19:42:12.484Z,21.37
2018-06-11T19:44:40.939Z,21.19
2018-06-11T19:47:09.384Z,21.22
2018-06-11T19:49:38.027Z,21.07
2018-06-11T19:52:06.874Z,21.11
2018-06-11T19:54:35.356Z,21.07
2018-06-11T19:57:03.834Z,21.02
2018-06-11T19:59:32.280Z,21.10
2018-06-11T20:02:00.963Z,21.06
2018-06-11T20:04:29.423Z,20.91
2018-06-11T20:06:57.884Z,20.58
2018-06-11T20:09:26.360Z,20.70
2018-06-11T20:11:55.092Z,20.50
2018-06-11T20:14:23.748Z,20.87
2018-06-11T20:16:52.221Z,20.74
2018-06-11T20:19:20.760Z,20.82
2018-06-11T20:21:49.744Z,20.88
2018-06-11T20:24:18.220Z,20.74
2018-06-11T20:26:46.659Z,20.72
2018-06-11T20:29:15.213Z,20.62
2018-06-11T20:31:44.539Z,20.49
2018-06-11T20:34:12.988Z,20.36
2018-06-11T20:36:41.454Z,20.26
2018-06-11T20:39:09.954Z,20.29
2018-06-11T20:41:38.404Z,20.43
2018-06-11T20:44:06.864Z,20.40
2018-06-11T20:46:35.395Z,20.21
2018-06-11T20:49:04.043Z,20.13
2018-06-11T20:51:32.528Z,20.08
2018-06-11T20:54:01.028Z,20.08
2018-06-11T20:56:29.467Z,20.34
2018-06-11T20:58:57.939Z,20.76
2018-06-11T21:01:26.395Z,20.72
2018-06-11T21:03:54.943Z,20.68
2018-06-11T21:06:23.383Z,20.76
2018-06-11T21:08:51.807Z,20.81
2018-06-11T21:11:20.311Z,20.55
2018-06-11T21:13:48.738Z,20.67
2018-06-11T21:16:17.173Z,20.47
2018-06-11T21:18:45.635Z,20.74
2018-06-11T21:21:14.040Z,20.73
2018-06-11T21:23:42.523Z,20.22
2018-06-11T21:26:10.957Z,20.44
2018-06-11T21:28:39.415Z,20.34
2018-06-11T21:31:07.839Z,20.36
2018-06-11T21:33:36.611Z,20.09
2018-06-11T21:36:05.040Z,19.96
2018-06-11T21:38:33.455Z,19.83
2018-06-11T21:41:01.891Z,19.73
2018-06-11T21:43:30.280Z,20.00
2018-06-11T21:45:58.759Z,19.96
2018-06-11T21:48:27.199Z,19.77
2018-06-11T21:50:55.871Z,19.78
2018-06-11T21:53:24.363Z,19.74
2018-06-11T21:55:52.785Z,19.82
2018-06-11T21:58:21.206Z,19.95
2018-06-11T22:00:49.619Z,19.95
2018-06-11T22:03:18.305Z,19.71
2018-06-11T22:05:46.683Z,20.17
2018-06-11T22:08:15.144Z,20.00
2018-06-11T22:10:43.639Z,19.91
2018-06-11T22:13:12.104Z,20.05
2018-06-11T22:15:40.605Z,19.93
2018-06-11T22:18:09.052Z,19.79
2018-06-11T22:20:37.447Z,19.68
2018-06-11T22:23:05.911Z,19.45
2018-06-11T22:25:34.358Z,19.67
2018-06-11T22:28:03.183Z,19.64
2018-06-11T22:30:31.602Z,19.67
2018-06-11T22:33:00.012Z,19.66
2018-06-11T22:35:28.443Z,19.54
2018-06-11T22:37:56.868Z,19.82
2018-06-11T22:40:25.331Z,19.91
2018-06-11T22:42:53.788Z,19.73
2018-06-11T22:45:22.239Z,19.98
2018-06-11T22:47:50.696Z,20.18
2018-06-11T22:50:19.136Z,20.23
2018-06-11T22:52:47.687Z,20.00
2018-06-11T22:55:16.131Z,19.79
2018-06-11T22:57:44.555Z,19.53
2018-06-11T23:00:13.855Z,19.32
2018-06-11T23:02:42.260Z,19.40
2018-06-11T23:05:10.819Z,19.43
2018-06-11T23:07:39.239Z,19.56
2018-06-11T23:10:07.722Z,19.29
2018-06-11T23:12:36.155Z,19.42
2018-06-11T23:15:04.603Z,19.27
2018-06-11T23:17:33.244Z,19.47
2018-06-11T23:20:01.676Z,19.45
2018-06-11T23:22:30.138Z,19.28
2018-06-11T23:24:58.567Z,19.24
2018-06-11T23:27:26.988Z,19.19
2018-06-11T23:29:55.411Z,19.45
2018-06-11T23:32:23.832Z,19.35
2018-06-11T23:34:52.235Z,19.48
2018-06-11T23:37:20.695Z,19.88
2018-06-11T23:39:49.123Z,19.78
2018-06-11T23:42:17.610Z,19.49
2018-06-11T23:44:46.035Z,19.90
2018-06-11T23:47:14.440Z,19.65
2018-06-11T23:49:42.911Z,19.36
2018-06-11T23:52:11.339Z,19.25
2018-06-11T23:54:40.159Z,19.42
2018-06-11T23:57:08.595Z,19.41
2018-06-11T23:59:37.011Z,19.34
